Du har inga inställningar för hoppväder.nu

Hoppväder.nu

Senast uppdaterat 10:03

UTC-tid

2021-06-16 kl. 08:03


Sol och måne

Solen går upp 4:20 och går ner 22:55 (beräknade cirkatider)
Nästa fullmåne blir om 8 dagar (2021-06-24)

METAR

ESMS (Malmö)
(13 minuter sedan)
ESMS 160750Z 18009KT 9999 SCT026 19/10 Q1020=



ESMK (Everöd)
(13 minuter sedan)
ESMK 160750Z 22007KT 170V270 9999 SCT038 18/10 Q1020=



ESTL (Ljungbyhed)
(13 minuter sedan)
ESTL 160750Z 19007KT 160V230 CAVOK 18/10 Q1019=



EKCH (Köpenhamn)
(43 minuter sedan)
EKCH 160720Z AUTO 22009KT 9999 NCD 18/10 Q1020 NOSIG=



ESTA (Ängelholm)
(13 minuter sedan)
ESTA 160750Z 23004KT 150V280 9999 FEW040 16/10 Q1019=



TAF

ESMS (Malmö)
(178 minuter sedan)
ESMS 160505Z 1606/1706 18008KT CAVOK=



ESMK (Everöd)
(180 minuter sedan)
ESMK 160503Z 1606/1615 18005KT CAVOK=



ESTL (Ljungbyhed)
(180 minuter sedan)
ESTL 160503Z 1606/1615 14005KT CAVOK=



EKCH (Köpenhamn)
(178 minuter sedan)
EKCH 160505Z 1606/1706 17010KT CAVOK=



ESTA (Ängelholm)
(180 minuter sedan)
ESTA 160503Z 1606/1615 14006KT CAVOK=





Kodnycklar till TAF och METAR






LHP

(Eslöv är område se11f i Hela Område 1)

Översikt

ÖVERSIKT FÖR OMRÅDE se1 UTFÄRDAD 160749

GÄLLANDE DEN 16 JUNI 2021 MELLAN 08 OCH 16 UTC


Väderöversikt
Se väderöversikt för område se2 + se3

Sikt under 5 kilometer eller molnbas under 1000 fot
Väntas inte förekomma under perioden.

Måttlig eller svår isbildning
Väntas inte förekomma under perioden

Måttlig eller svår turbulens
Väntas inte förekomma under perioden

Hela Område 1

PROGNOS FÖR OMRÅDE se11 UTFÄRDAD 160749
GÄLLANDE DEN 16 JUNI 2021 MELLAN 08 OCH 16 UTC

Måttlig eller svår turbulens
08-16UTC: I hela området: Väntas inte förekomma under perioden

Måttlig eller svår isbildning
08-16UTC: I hela området: Väntas inte förekomma under perioden

Sikt/Väder/Moln
08-16UTC: I hela området: Sikt >8km. Molnbas >4000ft.

Molnöversida
08-16UTC: I hela området: Ingen prognos

CB/TCU Moln
08-16UTC: I hela området: Väntas inte förekomma under perioden

Nollgradersisoterm
08-16UTC: Noll grader FL115 - > FL125.

Vind vid marken
08-10UTC: Område se11i: S-SV/0-13 knop, byar upp till 17 knop.
Område se11d: SV/0-6 knop, byar upp till 15 knop.
Område se11e: SV-V/2-8 knop, byar upp till 17 knop.
Område se11b: SO-S/0-9 knop, byar upp till 15 knop.
Område se11c: S-SV/4-10 knop, byar upp till 16 knop.
Område se11f: SV/3-8 knop, byar upp till 17 knop.
Område se11g: S-SV/2-8 knop, byar upp till 17 knop.
Område se11a: SV/2-8 knop, byar upp till 16 knop.
Område se11h: S/2-14 knop, byar upp till 19 knop.

10-12UTC: Område se11d: SV/0-9 knop, byar upp till 19 knop.
Område se11c: S-SV/5-14 knop, byar upp till 21 knop.
Område se11a: S/0-7 knop, byar upp till 17 knop.
Område se11g: SO-S/1-9 knop, byar upp till 17 knop.
Område se11h: S-SV/4-16 knop, byar upp till 21 knop.
Område se11f: S-SV/3-10 knop, byar upp till 19 knop.
Område se11b: NO-O/1-14 knop, byar upp till 20 knop.
Område se11e: SV/1-9 knop, byar upp till 20 knop.
Område se11i: S-SV/1-14 knop, byar upp till 20 knop.

12-14UTC: Område se11b: O/3-15 knop, byar upp till 22 knop.
Område se11d: SV/1-10 knop, byar upp till 21 knop.
Område se11a: SO/0-8 knop, byar upp till 16 knop.
Område se11i: S/1-12 knop, byar upp till 18 knop.
Område se11c: S-SV/5-13 knop, byar upp till 20 knop.
Område se11h: S-SV/4-18 knop, byar upp till 25 knop.
Område se11f: S-SV/3-8 knop, byar upp till 20 knop.
Område se11e: S-SV/0-10 knop, byar upp till 21 knop.
Område se11g: SO/3-10 knop, byar upp till 17 knop.

14-16UTC: Område se11d: S-SV/1-10 knop, byar upp till 21 knop.
Område se11a: SO-S/0-8 knop, byar upp till 16 knop.
Område se11i: SO/1-11 knop, byar upp till 19 knop.
Område se11b: O-SO/2-15 knop, byar upp till 21 knop.
Område se11g: O-SO/3-11 knop, byar upp till 18 knop.
Område se11f: S/4-9 knop, byar upp till 21 knop.
Område se11e: S-SV/0-14 knop, byar upp till 26 knop.
Område se11c: S/5-12 knop, byar upp till 19 knop.
Område se11h: S-SV/3-20 knop, byar upp till 27 knop.


Genomsnittlig vind och temperatur för området
2000ft:
08-10UTC: 220/8kt +11.
10-12UTC: 210/8kt +12.
12-14UTC: 200/8kt +13.
14-16UTC: 190/8kt +13.

FL50:
08-10UTC: 240/7kt +7.
10-12UTC: 240/7kt +9.
12-14UTC: 230/5kt +10.
14-16UTC: 200/5kt +10.

FL100:
08-10UTC: 290/9kt +4.
10-12UTC: 270/7kt +4.
12-14UTC: 250/5kt +4.
14-16UTC: 220/6kt +5.

Lägsta QNH
1018 hPa.

OBS! endast utbredd måttlig eller svår isbildning och turbulens prognostiseras i LLF.
Avsaknad av isbildning och turbulens i prognosen utesluter inte förekomst av lätt isbildning och turbulens.
För indikation på lätt isbildning, var vänlig kontrollera om prognosen för molntopp ligger högre än nollgradersisotermen.
Förekomst av TCU eller CB medför alltid en risk för måttlig eller svår isbildning och turbulens även om det inte framgår explicit av prognosen.







Spotting

Hur fungerar spotthjälpen och Vindkartan?

Markvind är ca 2-4 m/s med byar på 9 m/s.
Vind på 600 m ca 4 m/s.
Vind på 1500 m ca 4 m/s.
Vind på 3000 m ca 5 m/s.
Caravanen flyger ca 37 m/s över marken på finalen.
Du driver ca 208 m bakåt i frifall. (278 m)
Lämplig spot är 2 sekunder eller 73 m innan gropen.
(-0s eller -0 m)
För små grupper eller ensamhoppare bör man vänta 4-6 sekunder mellan grupperna.
För större grupper bör man vänta 8-10 sekunder mellan grupperna.


Vindkartan

Senast uppdaterad 10:03




All data kommer från LFV.se